Prospect, Maine
Current Conditions -  °F | °C
As of 4:53 AM on Sunday 21 Dec 2014 (Local Time) from KBGR Reporting Station
Light Snow Light Snow  
Wind Chill: 17°   Ceiling: 3100
Heat Index: 24°   Visibility: 9mi
Dew Point: 21°   Wind: 6mph
Humidity: 88%   Direction: 360°N
Pressure: 30.35"   Gusts: NA
Location:  44.532°N, 68.8613°W
Report Text: KBGR 210953Z 36005KT 9SM -SN OVC031 M04/M06 A3035 RMK AO2 SNB0854 SLP281 P0000 T10441061
Loading
Personal Weather Stations






























Interactive Weather Map New forecast layout! Learn more

10-Day Weather Forecast

Advertisements
Track Severe Weather on mobile